SJV743 WIPP-WIKK
Flight info
| Callsign | SJV743 |
|---|---|
| Flight time | N/A |
| Altitude | 15000 |
| Route | TODAK DCT GUGID |
| Aircraft | A320/M-SDE3FGHIRWY/LB1 |
Departure
| Time | 2026-04-25 16:18 |
|---|---|
| Airport | Sultan Mahmud Badaruddin II Airport (WIPP) |
Arrival
| Time | N/A |
|---|---|
| Airport | Depati Amir Airport (WIKK) |
| Time | Latitude | Longitude | Altitude | Speed | Heading |
|---|---|---|---|---|---|
| 2026-04-25 16:08 | -2.89586 | 104.70387 | 32 ft | 0 kts | 23° |
| 2026-04-25 16:10 | -2.89590 | 104.70385 | 26 ft | 2 kts | 23° |
| 2026-04-25 16:10 | -2.89607 | 104.70377 | 32 ft | 3 kts | 23° |
| 2026-04-25 16:10 | -2.89626 | 104.70369 | 30 ft | 3 kts | 23° |
| 2026-04-25 16:11 | -2.89642 | 104.70363 | 32 ft | 3 kts | 30° |
| 2026-04-25 16:11 | -2.89656 | 104.70351 | 29 ft | 3 kts | 62° |
| 2026-04-25 16:11 | -2.89662 | 104.70334 | 26 ft | 3 kts | 92° |
| 2026-04-25 16:11 | -2.89659 | 104.70315 | 26 ft | 2 kts | 111° |
| 2026-04-25 16:12 | -2.89656 | 104.70307 | 26 ft | 1 kts | 113° |
| 2026-04-25 16:12 | -2.89656 | 104.70306 | 30 ft | 0 kts | 113° |
| 2026-04-25 16:14 | -2.89656 | 104.70307 | 30 ft | 1 kts | 113° |
| 2026-04-25 16:14 | -2.89672 | 104.70343 | 29 ft | 9 kts | 113° |
| 2026-04-25 16:14 | -2.89698 | 104.70406 | 29 ft | 11 kts | 113° |
| 2026-04-25 16:14 | -2.89720 | 104.70456 | 28 ft | 13 kts | 113° |
| 2026-04-25 16:15 | -2.89749 | 104.70525 | 29 ft | 11 kts | 113° |
| 2026-04-25 16:15 | -2.89816 | 104.70548 | 30 ft | 12 kts | 198° |
| 2026-04-25 16:15 | -2.89898 | 104.70574 | 22 ft | 16 kts | 117° |
| 2026-04-25 16:15 | -2.89967 | 104.70735 | 20 ft | 21 kts | 113° |
| 2026-04-25 16:16 | -2.90006 | 104.70828 | 19 ft | 23 kts | 113° |
| 2026-04-25 16:16 | -2.90067 | 104.70975 | 17 ft | 16 kts | 113° |
| 2026-04-25 16:16 | -2.90134 | 104.71047 | 18 ft | 11 kts | 162° |
| 2026-04-25 16:16 | -2.90210 | 104.71026 | 20 ft | 13 kts | 220° |
| 2026-04-25 16:17 | -2.90241 | 104.70974 | 20 ft | 8 kts | 273° |
| 2026-04-25 16:17 | -2.90216 | 104.70906 | 19 ft | 17 kts | 293° |
| 2026-04-25 16:17 | -2.90071 | 104.70562 | 23 ft | 89 kts | 293° |
| 2026-04-25 16:17 | -2.89752 | 104.69807 | 17 ft | 143 kts | 293° |
| 2026-04-25 16:18 | -2.89318 | 104.68806 | 365 ft | 159 kts | 293° |
| 2026-04-25 16:18 | -2.89009 | 104.68145 | 814 ft | 159 kts | 295° |
| 2026-04-25 16:18 | -2.88431 | 104.66793 | 1722 ft | 158 kts | 291° |
| 2026-04-25 16:18 | -2.88006 | 104.65751 | 2108 ft | 174 kts | 298° |
| 2026-04-25 16:19 | -2.87029 | 104.64964 | 2358 ft | 197 kts | 346° |
| 2026-04-25 16:19 | -2.85618 | 104.65124 | 2601 ft | 221 kts | 28° |
| 2026-04-25 16:19 | -2.84308 | 104.66079 | 2901 ft | 247 kts | 39° |
| 2026-04-25 16:20 | -2.81545 | 104.68436 | 4347 ft | 267 kts | 40° |
| 2026-04-25 16:20 | -2.80119 | 104.69669 | 4930 ft | 272 kts | 41° |
| 2026-04-25 16:20 | -2.77725 | 104.72545 | 6733 ft | 275 kts | 68° |
| 2026-04-25 16:21 | -2.77027 | 104.74337 | 7586 ft | 278 kts | 69° |
| 2026-04-25 16:21 | -2.76334 | 104.76149 | 8390 ft | 281 kts | 69° |
| 2026-04-25 16:21 | -2.75636 | 104.77988 | 9158 ft | 284 kts | 69° |
| 2026-04-25 16:21 | -2.74929 | 104.79847 | 9889 ft | 288 kts | 69° |
| 2026-04-25 16:22 | -2.74199 | 104.81756 | 10301 ft | 305 kts | 69° |
| 2026-04-25 16:22 | -2.73421 | 104.83780 | 10457 ft | 327 kts | 69° |
| 2026-04-25 16:22 | -2.72576 | 104.85971 | 10589 ft | 348 kts | 69° |
| 2026-04-25 16:22 | -2.71692 | 104.88267 | 10942 ft | 358 kts | 69° |
| 2026-04-25 16:23 | -2.70788 | 104.90612 | 11526 ft | 362 kts | 69° |
| 2026-04-25 16:23 | -2.69879 | 104.92966 | 12167 ft | 364 kts | 69° |
| 2026-04-25 16:23 | -2.68960 | 104.95343 | 12773 ft | 367 kts | 69° |
| 2026-04-25 16:23 | -2.68035 | 104.97739 | 13374 ft | 370 kts | 69° |
| 2026-04-25 16:24 | -2.67106 | 105.00147 | 13956 ft | 373 kts | 69° |
| 2026-04-25 16:24 | -2.66168 | 105.02578 | 14506 ft | 376 kts | 69° |
| 2026-04-25 16:24 | -2.65222 | 105.05028 | 14856 ft | 378 kts | 69° |
| 2026-04-25 16:24 | -2.64271 | 105.07499 | 14938 ft | 387 kts | 69° |
| 2026-04-25 16:25 | -2.63284 | 105.10069 | 14946 ft | 404 kts | 69° |
| 2026-04-25 16:25 | -2.62608 | 105.11825 | 14943 ft | 411 kts | 69° |
| 2026-04-25 16:25 | -2.61220 | 105.15422 | 14942 ft | 416 kts | 69° |
| 2026-04-25 16:25 | -2.60178 | 105.18116 | 14943 ft | 416 kts | 69° |
| 2026-04-25 16:26 | -2.59147 | 105.20782 | 14942 ft | 416 kts | 69° |
| 2026-04-25 16:26 | -2.58104 | 105.23485 | 14941 ft | 416 kts | 69° |
| 2026-04-25 16:26 | -2.57065 | 105.26181 | 14942 ft | 416 kts | 69° |
| 2026-04-25 16:26 | -2.56022 | 105.28890 | 14943 ft | 416 kts | 69° |
| 2026-04-25 16:27 | -2.54985 | 105.31586 | 14943 ft | 416 kts | 69° |
| 2026-04-25 16:27 | -2.53949 | 105.34290 | 14942 ft | 416 kts | 69° |
| 2026-04-25 16:27 | -2.52892 | 105.36977 | 14937 ft | 415 kts | 66° |
| 2026-04-25 16:27 | -2.51483 | 105.39506 | 14938 ft | 416 kts | 56° |
| 2026-04-25 16:28 | -2.49669 | 105.41761 | 14935 ft | 416 kts | 49° |
| 2026-04-25 16:28 | -2.47760 | 105.43940 | 14938 ft | 417 kts | 49° |
| 2026-04-25 16:28 | -2.45848 | 105.46123 | 14935 ft | 417 kts | 49° |
| 2026-04-25 16:28 | -2.43938 | 105.48310 | 14936 ft | 417 kts | 50° |
| 2026-04-25 16:29 | -2.42032 | 105.50499 | 14934 ft | 417 kts | 50° |
| 2026-04-25 16:29 | -2.40151 | 105.52663 | 14936 ft | 417 kts | 50° |
| 2026-04-25 16:29 | -2.38244 | 105.54855 | 14936 ft | 417 kts | 50° |
| 2026-04-25 16:29 | -2.36342 | 105.57043 | 14930 ft | 417 kts | 50° |
| 2026-04-25 16:30 | -2.34440 | 105.59229 | 14934 ft | 417 kts | 50° |
| 2026-04-25 16:30 | -2.32535 | 105.61419 | 14934 ft | 417 kts | 50° |
| 2026-04-25 16:30 | -2.30630 | 105.63604 | 14936 ft | 417 kts | 50° |
| 2026-04-25 16:30 | -2.28721 | 105.65794 | 14938 ft | 417 kts | 50° |
| 2026-04-25 16:31 | -2.26815 | 105.67982 | 14938 ft | 417 kts | 50° |
| 2026-04-25 16:31 | -2.24909 | 105.70169 | 14940 ft | 417 kts | 50° |
| 2026-04-25 16:31 | -2.23004 | 105.72359 | 14940 ft | 417 kts | 50° |
| 2026-04-25 16:31 | -2.21100 | 105.74549 | 14941 ft | 417 kts | 50° |
| 2026-04-25 16:32 | -2.19194 | 105.76743 | 14941 ft | 417 kts | 50° |
| 2026-04-25 16:32 | -2.17292 | 105.78930 | 14941 ft | 417 kts | 50° |
| 2026-04-25 16:32 | -2.15385 | 105.81123 | 14940 ft | 418 kts | 50° |
| 2026-04-25 16:32 | -2.13477 | 105.83317 | 14940 ft | 418 kts | 50° |
| 2026-04-25 16:33 | -2.11574 | 105.85505 | 14942 ft | 417 kts | 50° |
| 2026-04-25 16:33 | -2.09669 | 105.87693 | 14941 ft | 417 kts | 50° |
| 2026-04-25 16:33 | -2.07789 | 105.89852 | 14941 ft | 417 kts | 50° |
| 2026-04-25 16:33 | -2.05900 | 105.92006 | 14938 ft | 401 kts | 49° |
| 2026-04-25 16:34 | -2.04105 | 105.94043 | 14896 ft | 380 kts | 49° |
| 2026-04-25 16:34 | -2.02405 | 105.95982 | 14764 ft | 363 kts | 50° |
| 2026-04-25 16:34 | -2.00778 | 105.97848 | 14367 ft | 354 kts | 50° |
| 2026-04-25 16:34 | -1.99143 | 105.99729 | 13412 ft | 362 kts | 50° |
| 2026-04-25 16:35 | -1.97477 | 106.01652 | 12439 ft | 369 kts | 50° |
| 2026-04-25 16:35 | -1.95782 | 106.03611 | 11447 ft | 375 kts | 50° |
| 2026-04-25 16:35 | -1.94065 | 106.05592 | 10438 ft | 375 kts | 50° |
| 2026-04-25 16:35 | -1.92388 | 106.07535 | 9446 ft | 362 kts | 52° |
| 2026-04-25 16:36 | -1.90836 | 106.09466 | 8466 ft | 351 kts | 46° |
| 2026-04-25 16:36 | -1.90229 | 106.10018 | 8141 ft | 348 kts | 39° |
| 2026-04-25 16:36 | -1.86898 | 106.12156 | 6512 ft | 337 kts | 32° |
| 2026-04-25 16:36 | -1.84773 | 106.13058 | 5535 ft | 332 kts | 13° |
| 2026-04-25 16:37 | -1.82507 | 106.13405 | 4618 ft | 327 kts | 2° |
| 2026-04-25 16:37 | -1.80334 | 106.13142 | 4407 ft | 302 kts | 344° |
| 2026-04-25 16:37 | -1.78506 | 106.12316 | 4337 ft | 277 kts | 327° |
| 2026-04-25 16:37 | -1.77126 | 106.11092 | 4273 ft | 256 kts | 310° |
| 2026-04-25 16:38 | -1.76218 | 106.09627 | 4217 ft | 245 kts | 294° |
| 2026-04-25 16:38 | -1.75748 | 106.08011 | 4166 ft | 245 kts | 278° |
| 2026-04-25 16:38 | -1.75727 | 106.06312 | 4112 ft | 245 kts | 263° |
| 2026-04-25 16:38 | -1.76157 | 106.04662 | 4056 ft | 245 kts | 247° |
| 2026-04-25 16:39 | -1.77004 | 106.03187 | 3994 ft | 246 kts | 231° |
| 2026-04-25 16:39 | -1.78213 | 106.01991 | 3946 ft | 245 kts | 216° |
| 2026-04-25 16:39 | -1.79701 | 106.01158 | 3890 ft | 245 kts | 200° |
| 2026-04-25 16:39 | -1.81306 | 106.00752 | 3828 ft | 232 kts | 185° |
| 2026-04-25 16:40 | -1.82876 | 106.00759 | 3783 ft | 222 kts | 171° |
| 2026-04-25 16:40 | -1.84366 | 106.01131 | 3734 ft | 220 kts | 156° |
| 2026-04-25 16:40 | -1.85696 | 106.01834 | 3686 ft | 219 kts | 143° |
| 2026-04-25 16:40 | -1.86880 | 106.02781 | 3633 ft | 218 kts | 139° |
| 2026-04-25 16:41 | -1.88055 | 106.03741 | 3577 ft | 218 kts | 140° |
| 2026-04-25 16:41 | -1.88850 | 106.04387 | 3555 ft | 218 kts | 139° |
| 2026-04-25 16:41 | -1.91592 | 106.06611 | 3437 ft | 218 kts | 140° |
| 2026-04-25 16:42 | -1.92869 | 106.07429 | 3387 ft | 219 kts | 156° |
| 2026-04-25 16:42 | -1.94322 | 106.07883 | 3341 ft | 220 kts | 163° |
| 2026-04-25 16:42 | -1.95794 | 106.08298 | 3294 ft | 217 kts | 163° |
| 2026-04-25 16:42 | -1.97203 | 106.08699 | 3241 ft | 206 kts | 163° |
| 2026-04-25 16:43 | -1.98547 | 106.09086 | 3194 ft | 201 kts | 162° |
| 2026-04-25 16:43 | -1.99885 | 106.09460 | 3081 ft | 199 kts | 163° |
| 2026-04-25 16:43 | -2.01208 | 106.09818 | 2881 ft | 193 kts | 164° |
| 2026-04-25 16:43 | -2.02493 | 106.10165 | 2618 ft | 189 kts | 164° |
| 2026-04-25 16:44 | -2.03752 | 106.10509 | 2360 ft | 184 kts | 164° |
| 2026-04-25 16:44 | -2.04951 | 106.10835 | 2132 ft | 170 kts | 164° |
| 2026-04-25 16:44 | -2.06034 | 106.11130 | 1904 ft | 155 kts | 164° |
| 2026-04-25 16:44 | -2.07055 | 106.11407 | 1697 ft | 149 kts | 164° |
| 2026-04-25 16:45 | -2.08048 | 106.11677 | 1497 ft | 147 kts | 164° |
| 2026-04-25 16:45 | -2.09032 | 106.11944 | 1309 ft | 146 kts | 164° |
| 2026-04-25 16:45 | -2.10012 | 106.12210 | 1123 ft | 146 kts | 164° |
| 2026-04-25 16:45 | -2.10986 | 106.12476 | 936 ft | 145 kts | 164° |
| 2026-04-25 16:46 | -2.11957 | 106.12738 | 749 ft | 145 kts | 164° |
| 2026-04-25 16:46 | -2.12926 | 106.12999 | 565 ft | 144 kts | 164° |
| 2026-04-25 16:46 | -2.13891 | 106.13252 | 384 ft | 143 kts | 164° |
| 2026-04-25 16:46 | -2.14203 | 106.13336 | 332 ft | 143 kts | 163° |
| 2026-04-25 16:47 | -2.15786 | 106.13774 | 117 ft | 135 kts | 161° |
| 2026-04-25 16:47 | -2.16801 | 106.14066 | 363 ft | 169 kts | 163° |
| 2026-04-25 16:47 | -2.18041 | 106.14416 | 914 ft | 198 kts | 164° |
| 2026-04-25 16:47 | -2.19429 | 106.14799 | 1768 ft | 211 kts | 164° |
| 2026-04-25 16:48 | -2.20868 | 106.15196 | 2475 ft | 216 kts | 164° |
| 2026-04-25 16:48 | -2.22349 | 106.15541 | 3242 ft | 221 kts | 175° |
| 2026-04-25 16:48 | -2.23868 | 106.15283 | 3986 ft | 226 kts | 206° |
| 2026-04-25 16:48 | -2.25068 | 106.14276 | 4696 ft | 231 kts | 237° |
| 2026-04-25 16:49 | -2.25594 | 106.12727 | 4943 ft | 251 kts | 271° |
| 2026-04-25 16:49 | -2.25105 | 106.10986 | 5001 ft | 272 kts | 306° |
| 2026-04-25 16:49 | -2.23667 | 106.09788 | 5003 ft | 272 kts | 341° |
| 2026-04-25 16:49 | -2.21820 | 106.09416 | 5003 ft | 273 kts | 355° |
| 2026-04-25 16:50 | -2.20565 | 106.09305 | 5001 ft | 274 kts | 358° |
| 2026-04-25 16:50 | -2.18024 | 106.09170 | 5004 ft | 273 kts | 359° |
| 2026-04-25 16:50 | -2.16127 | 106.09081 | 5004 ft | 273 kts | 358° |
| 2026-04-25 16:50 | -2.14256 | 106.08977 | 5003 ft | 273 kts | 358° |
| 2026-04-25 16:51 | -2.12359 | 106.08855 | 5004 ft | 273 kts | 357° |
| 2026-04-25 16:51 | -2.10463 | 106.08722 | 5003 ft | 273 kts | 357° |
| 2026-04-25 16:51 | -2.08565 | 106.08582 | 5001 ft | 273 kts | 357° |
| 2026-04-25 16:51 | -2.07924 | 106.08534 | 5002 ft | 273 kts | 357° |
| 2026-04-25 16:52 | -2.04777 | 106.08295 | 4956 ft | 274 kts | 356° |
| 2026-04-25 16:52 | -2.02856 | 106.08148 | 4580 ft | 276 kts | 356° |
| 2026-04-25 16:52 | -2.00957 | 106.08002 | 4268 ft | 272 kts | 356° |
| 2026-04-25 16:52 | -1.99073 | 106.07860 | 3974 ft | 270 kts | 356° |
| 2026-04-25 16:53 | -1.95554 | 106.08925 | 2768 ft | 283 kts | 51° |
| 2026-04-25 16:53 | -1.94846 | 106.10652 | 2631 ft | 261 kts | 87° |
| 2026-04-25 16:53 | -1.95250 | 106.12263 | 2602 ft | 238 kts | 124° |
| 2026-04-25 16:54 | -1.96517 | 106.13195 | 2601 ft | 221 kts | 167° |
| 2026-04-25 16:54 | -1.98014 | 106.13138 | 2591 ft | 210 kts | 190° |
| 2026-04-25 16:54 | -1.99418 | 106.12874 | 2432 ft | 204 kts | 191° |
| 2026-04-25 16:54 | -2.00769 | 106.12619 | 2270 ft | 190 kts | 191° |
| 2026-04-25 16:55 | -2.02009 | 106.12382 | 2144 ft | 170 kts | 191° |
| 2026-04-25 16:55 | -2.03125 | 106.12166 | 2040 ft | 156 kts | 191° |
| 2026-04-25 16:55 | -2.04174 | 106.11965 | 1929 ft | 151 kts | 191° |
| 2026-04-25 16:55 | -2.05200 | 106.11769 | 1824 ft | 149 kts | 191° |
| 2026-04-25 16:56 | -2.06212 | 106.11575 | 1723 ft | 148 kts | 191° |
| 2026-04-25 16:56 | -2.07226 | 106.11471 | 1622 ft | 147 kts | 174° |
| 2026-04-25 16:56 | -2.08210 | 106.11740 | 1471 ft | 147 kts | 163° |
| 2026-04-25 16:56 | -2.09188 | 106.12014 | 1288 ft | 145 kts | 165° |
| 2026-04-25 16:57 | -2.10161 | 106.12274 | 1094 ft | 145 kts | 165° |
| 2026-04-25 16:57 | -2.10478 | 106.12359 | 1033 ft | 145 kts | 165° |
| 2026-04-25 16:57 | -2.12105 | 106.12794 | 722 ft | 144 kts | 165° |
| 2026-04-25 16:57 | -2.13071 | 106.13052 | 534 ft | 143 kts | 165° |
| 2026-04-25 16:58 | -2.14031 | 106.13295 | 358 ft | 142 kts | 164° |
| 2026-04-25 16:58 | -2.14973 | 106.13552 | 199 ft | 142 kts | 163° |
| 2026-04-25 16:58 | -2.15894 | 106.13808 | 127 ft | 141 kts | 165° |
| 2026-04-25 16:58 | -2.16942 | 106.14081 | 485 ft | 163 kts | 166° |
| 2026-04-25 16:59 | -2.18029 | 106.14361 | 1030 ft | 158 kts | 164° |
| 2026-04-25 16:59 | -2.19083 | 106.14647 | 1329 ft | 157 kts | 164° |
| 2026-04-25 16:59 | -2.20134 | 106.14938 | 1625 ft | 157 kts | 162° |
| 2026-04-25 16:59 | -2.21108 | 106.15472 | 1764 ft | 170 kts | 131° |
| 2026-04-25 17:00 | -2.21238 | 106.15625 | 1781 ft | 174 kts | 123° |